sensor_id;sensor_type;location;lat;lon;timestamp;P1;durP1;ratioP1;P2;durP2;ratioP2
16330;SDS011;8275;48.206;16.340;2022-10-31T00:01:43;4.03;;;3.63;;
16330;SDS011;8275;48.206;16.340;2022-10-31T00:04:12;4.13;;;3.72;;
16330;SDS011;8275;48.206;16.340;2022-10-31T00:06:40;6.50;;;5.70;;
16330;SDS011;8275;48.206;16.340;2022-10-31T00:09:10;4.97;;;4.53;;
16330;SDS011;8275;48.206;16.340;2022-10-31T00:11:39;5.70;;;5.18;;
16330;SDS011;8275;48.206;16.340;2022-10-31T00:14:07;5.60;;;4.47;;
16330;SDS011;8275;48.206;16.340;2022-10-31T00:16:36;3.80;;;3.50;;
16330;SDS011;8275;48.206;16.340;2022-10-31T00:19:05;4.30;;;3.28;;
16330;SDS011;8275;48.206;16.340;2022-10-31T00:21:36;4.45;;;4.03;;
16330;SDS011;8275;48.206;16.340;2022-10-31T00:24:04;5.55;;;4.97;;
16330;SDS011;8275;48.206;16.340;2022-10-31T00:26:35;4.93;;;4.43;;
16330;SDS011;8275;48.206;16.340;2022-10-31T00:29:03;5.60;;;3.30;;
16330;SDS011;8275;48.206;16.340;2022-10-31T00:31:31;5.97;;;5.28;;
16330;SDS011;8275;48.206;16.340;2022-10-31T00:34:00;5.57;;;3.95;;
16330;SDS011;8275;48.206;16.340;2022-10-31T00:36:29;3.92;;;3.20;;
16330;SDS011;8275;48.206;16.340;2022-10-31T00:38:58;4.00;;;3.33;;
16330;SDS011;8275;48.206;16.340;2022-10-31T00:41:27;3.80;;;3.50;;
16330;SDS011;8275;48.206;16.340;2022-10-31T00:43:57;3.80;;;3.53;;
16330;SDS011;8275;48.206;16.340;2022-10-31T00:46:26;3.75;;;2.28;;
16330;SDS011;8275;48.206;16.340;2022-10-31T00:48:54;3.38;;;3.15;;
16330;SDS011;8275;48.206;16.340;2022-10-31T00:51:22;5.82;;;4.18;;
16330;SDS011;8275;48.206;16.340;2022-10-31T00:53:51;4.05;;;3.70;;
16330;SDS011;8275;48.206;16.340;2022-10-31T00:56:19;2.90;;;2.70;;
16330;SDS011;8275;48.206;16.340;2022-10-31T00:58:47;3.88;;;3.40;;
16330;SDS011;8275;48.206;16.340;2022-10-31T01:01:17;5.00;;;3.60;;
16330;SDS011;8275;48.206;16.340;2022-10-31T01:03:46;4.28;;;3.35;;
16330;SDS011;8275;48.206;16.340;2022-10-31T01:06:14;4.40;;;3.97;;
16330;SDS011;8275;48.206;16.340;2022-10-31T01:08:42;4.00;;;3.63;;
16330;SDS011;8275;48.206;16.340;2022-10-31T01:11:11;6.65;;;3.85;;
16330;SDS011;8275;48.206;16.340;2022-10-31T01:13:42;3.42;;;3.22;;
16330;SDS011;8275;48.206;16.340;2022-10-31T01:16:12;4.35;;;3.63;;
16330;SDS011;8275;48.206;16.340;2022-10-31T01:18:45;5.72;;;4.50;;
16330;SDS011;8275;48.206;16.340;2022-10-31T01:21:14;2.97;;;2.63;;
16330;SDS011;8275;48.206;16.340;2022-10-31T01:23:44;3.17;;;2.60;;
16330;SDS011;8275;48.206;16.340;2022-10-31T01:26:14;4.43;;;3.45;;
16330;SDS011;8275;48.206;16.340;2022-10-31T01:28:44;3.25;;;2.90;;
16330;SDS011;8275;48.206;16.340;2022-10-31T01:31:15;3.60;;;3.30;;
16330;SDS011;8275;48.206;16.340;2022-10-31T01:33:46;5.18;;;4.63;;
16330;SDS011;8275;48.206;16.340;2022-10-31T01:36:16;4.05;;;3.75;;
16330;SDS011;8275;48.206;16.340;2022-10-31T01:38:47;4.47;;;2.72;;
16330;SDS011;8275;48.206;16.340;2022-10-31T01:41:17;4.70;;;3.58;;
16330;SDS011;8275;48.206;16.340;2022-10-31T01:43:52;3.38;;;2.40;;
16330;SDS011;8275;48.206;16.340;2022-10-31T01:46:24;2.70;;;2.50;;
16330;SDS011;8275;48.206;16.340;2022-10-31T01:48:59;3.72;;;3.13;;
16330;SDS011;8275;48.206;16.340;2022-10-31T01:51:32;4.30;;;3.92;;
16330;SDS011;8275;48.206;16.340;2022-10-31T01:54:04;3.47;;;3.17;;
16330;SDS011;8275;48.206;16.340;2022-10-31T01:56:37;3.80;;;3.45;;
16330;SDS011;8275;48.206;16.340;2022-10-31T01:59:10;3.08;;;2.78;;
16330;SDS011;8275;48.206;16.340;2022-10-31T02:01:41;4.15;;;3.08;;
16330;SDS011;8275;48.206;16.340;2022-10-31T02:04:12;3.53;;;3.33;;
16330;SDS011;8275;48.206;16.340;2022-10-31T02:06:42;5.22;;;3.10;;
16330;SDS011;8275;48.206;16.340;2022-10-31T02:09:16;3.65;;;2.67;;
16330;SDS011;8275;48.206;16.340;2022-10-31T02:11:49;5.25;;;3.15;;
16330;SDS011;8275;48.206;16.340;2022-10-31T02:14:20;3.38;;;2.95;;
16330;SDS011;8275;48.206;16.340;2022-10-31T02:16:49;3.00;;;2.70;;
16330;SDS011;8275;48.206;16.340;2022-10-31T02:19:21;3.78;;;3.47;;
16330;SDS011;8275;48.206;16.340;2022-10-31T02:21:59;4.30;;;3.55;;
16330;SDS011;8275;48.206;16.340;2022-10-31T02:24:44;3.70;;;3.40;;
16330;SDS011;8275;48.206;16.340;2022-10-31T02:27:33;3.35;;;3.13;;
16330;SDS011;8275;48.206;16.340;2022-10-31T02:30:30;3.08;;;2.35;;
16330;SDS011;8275;48.206;16.340;2022-10-31T02:33:13;3.25;;;2.95;;
16330;SDS011;8275;48.206;16.340;2022-10-31T02:35:54;2.35;;;1.90;;
16330;SDS011;8275;48.206;16.340;2022-10-31T02:38:37;3.00;;;2.60;;
16330;SDS011;8275;48.206;16.340;2022-10-31T02:41:18;4.68;;;2.75;;
16330;SDS011;8275;48.206;16.340;2022-10-31T02:43:58;2.83;;;2.63;;
16330;SDS011;8275;48.206;16.340;2022-10-31T02:46:35;3.03;;;2.50;;
16330;SDS011;8275;48.206;16.340;2022-10-31T02:49:14;2.25;;;2.08;;
16330;SDS011;8275;48.206;16.340;2022-10-31T02:51:50;3.28;;;2.25;;
16330;SDS011;8275;48.206;16.340;2022-10-31T02:54:19;2.65;;;2.45;;
16330;SDS011;8275;48.206;16.340;2022-10-31T02:56:51;2.17;;;1.98;;
16330;SDS011;8275;48.206;16.340;2022-10-31T02:59:25;3.60;;;2.85;;
16330;SDS011;8275;48.206;16.340;2022-10-31T03:02:08;2.75;;;2.13;;
16330;SDS011;8275;48.206;16.340;2022-10-31T03:05:03;2.17;;;1.98;;
16330;SDS011;8275;48.206;16.340;2022-10-31T03:08:04;3.88;;;2.45;;
16330;SDS011;8275;48.206;16.340;2022-10-31T03:10:41;2.20;;;2.00;;
16330;SDS011;8275;48.206;16.340;2022-10-31T03:13:14;1.55;;;1.45;;
16330;SDS011;8275;48.206;16.340;2022-10-31T03:15:51;2.35;;;2.15;;
16330;SDS011;8275;48.206;16.340;2022-10-31T03:18:25;2.38;;;2.05;;
16330;SDS011;8275;48.206;16.340;2022-10-31T03:21:00;2.85;;;2.65;;
16330;SDS011;8275;48.206;16.340;2022-10-31T03:23:33;1.80;;;1.65;;
16330;SDS011;8275;48.206;16.340;2022-10-31T03:26:04;2.40;;;2.10;;
16330;SDS011;8275;48.206;16.340;2022-10-31T03:28:37;2.78;;;2.10;;
16330;SDS011;8275;48.206;16.340;2022-10-31T03:31:11;1.95;;;1.73;;
16330;SDS011;8275;48.206;16.340;2022-10-31T03:33:43;3.47;;;3.17;;
16330;SDS011;8275;48.206;16.340;2022-10-31T03:36:15;2.35;;;2.20;;
16330;SDS011;8275;48.206;16.340;2022-10-31T03:38:46;2.42;;;2.22;;
16330;SDS011;8275;48.206;16.340;2022-10-31T03:41:17;2.78;;;2.38;;
16330;SDS011;8275;48.206;16.340;2022-10-31T03:43:51;2.97;;;2.67;;
16330;SDS011;8275;48.206;16.340;2022-10-31T03:46:24;2.55;;;2.35;;
16330;SDS011;8275;48.206;16.340;2022-10-31T03:48:54;2.08;;;1.88;;
16330;SDS011;8275;48.206;16.340;2022-10-31T03:51:25;1.80;;;1.70;;
16330;SDS011;8275;48.206;16.340;2022-10-31T03:54:03;2.17;;;1.95;;
16330;SDS011;8275;48.206;16.340;2022-10-31T03:56:40;1.73;;;1.63;;
16330;SDS011;8275;48.206;16.340;2022-10-31T03:59:16;2.35;;;1.98;;
16330;SDS011;8275;48.206;16.340;2022-10-31T04:01:51;2.05;;;1.95;;
16330;SDS011;8275;48.206;16.340;2022-10-31T04:04:25;2.50;;;2.30;;
16330;SDS011;8275;48.206;16.340;2022-10-31T04:06:56;1.58;;;1.48;;
16330;SDS011;8275;48.206;16.340;2022-10-31T04:09:29;2.35;;;2.13;;
16330;SDS011;8275;48.206;16.340;2022-10-31T04:12:02;3.15;;;2.67;;
16330;SDS011;8275;48.206;16.340;2022-10-31T04:14:35;2.33;;;2.22;;
16330;SDS011;8275;48.206;16.340;2022-10-31T04:17:07;3.20;;;2.05;;
16330;SDS011;8275;48.206;16.340;2022-10-31T04:19:40;2.10;;;1.80;;
16330;SDS011;8275;48.206;16.340;2022-10-31T04:22:10;2.03;;;1.85;;
16330;SDS011;8275;48.206;16.340;2022-10-31T04:24:38;2.22;;;1.88;;
16330;SDS011;8275;48.206;16.340;2022-10-31T04:27:07;2.38;;;2.15;;
16330;SDS011;8275;48.206;16.340;2022-10-31T04:29:39;1.55;;;1.45;;
16330;SDS011;8275;48.206;16.340;2022-10-31T04:32:12;4.35;;;3.13;;
16330;SDS011;8275;48.206;16.340;2022-10-31T04:34:40;1.65;;;1.55;;
16330;SDS011;8275;48.206;16.340;2022-10-31T04:37:10;2.30;;;2.10;;
16330;SDS011;8275;48.206;16.340;2022-10-31T04:39:38;2.65;;;2.13;;
16330;SDS011;8275;48.206;16.340;2022-10-31T04:42:06;2.08;;;1.95;;
16330;SDS011;8275;48.206;16.340;2022-10-31T04:44:35;1.80;;;1.67;;
16330;SDS011;8275;48.206;16.340;2022-10-31T04:47:03;2.58;;;2.08;;
16330;SDS011;8275;48.206;16.340;2022-10-31T04:49:32;5.13;;;2.25;;
16330;SDS011;8275;48.206;16.340;2022-10-31T04:52:00;1.98;;;1.83;;
16330;SDS011;8275;48.206;16.340;2022-10-31T04:54:30;2.22;;;2.03;;
16330;SDS011;8275;48.206;16.340;2022-10-31T04:56:58;2.22;;;1.88;;
16330;SDS011;8275;48.206;16.340;2022-10-31T04:59:27;2.30;;;2.10;;
16330;SDS011;8275;48.206;16.340;2022-10-31T05:01:55;4.03;;;2.38;;
16330;SDS011;8275;48.206;16.340;2022-10-31T05:04:23;2.40;;;2.20;;
16330;SDS011;8275;48.206;16.340;2022-10-31T05:06:52;2.88;;;2.67;;
16330;SDS011;8275;48.206;16.340;2022-10-31T05:09:20;2.22;;;1.85;;
16330;SDS011;8275;48.206;16.340;2022-10-31T05:11:50;2.08;;;1.95;;
16330;SDS011;8275;48.206;16.340;2022-10-31T05:14:18;2.72;;;2.53;;
16330;SDS011;8275;48.206;16.340;2022-10-31T05:16:46;2.30;;;2.05;;
16330;SDS011;8275;48.206;16.340;2022-10-31T05:19:15;2.33;;;1.58;;
16330;SDS011;8275;48.206;16.340;2022-10-31T05:21:43;2.55;;;2.35;;
16330;SDS011;8275;48.206;16.340;2022-10-31T05:24:12;2.22;;;2.03;;
16330;SDS011;8275;48.206;16.340;2022-10-31T05:26:40;1.40;;;1.30;;
16330;SDS011;8275;48.206;16.340;2022-10-31T05:29:10;3.63;;;2.55;;
16330;SDS011;8275;48.206;16.340;2022-10-31T05:31:38;1.95;;;1.85;;
16330;SDS011;8275;48.206;16.340;2022-10-31T05:34:06;2.92;;;2.58;;
16330;SDS011;8275;48.206;16.340;2022-10-31T05:36:35;2.67;;;1.98;;
16330;SDS011;8275;48.206;16.340;2022-10-31T05:39:04;2.40;;;2.20;;
16330;SDS011;8275;48.206;16.340;2022-10-31T05:41:32;2.08;;;1.52;;
16330;SDS011;8275;48.206;16.340;2022-10-31T05:44:00;2.25;;;2.05;;
16330;SDS011;8275;48.206;16.340;2022-10-31T05:46:30;2.80;;;2.60;;
16330;SDS011;8275;48.206;16.340;2022-10-31T05:48:59;4.15;;;2.50;;
16330;SDS011;8275;48.206;16.340;2022-10-31T05:51:28;2.22;;;2.05;;
16330;SDS011;8275;48.206;16.340;2022-10-31T05:53:56;2.72;;;2.53;;
16330;SDS011;8275;48.206;16.340;2022-10-31T05:56:25;2.75;;;2.53;;
16330;SDS011;8275;48.206;16.340;2022-10-31T05:58:53;3.78;;;2.63;;
16330;SDS011;8275;48.206;16.340;2022-10-31T06:01:22;2.80;;;2.53;;
16330;SDS011;8275;48.206;16.340;2022-10-31T06:03:51;2.80;;;2.50;;
16330;SDS011;8275;48.206;16.340;2022-10-31T06:06:20;3.58;;;2.58;;
16330;SDS011;8275;48.206;16.340;2022-10-31T06:08:48;3.17;;;2.88;;
16330;SDS011;8275;48.206;16.340;2022-10-31T06:11:17;3.13;;;2.83;;
16330;SDS011;8275;48.206;16.340;2022-10-31T06:13:45;2.03;;;1.67;;
16330;SDS011;8275;48.206;16.340;2022-10-31T06:16:13;2.88;;;2.67;;
16330;SDS011;8275;48.206;16.340;2022-10-31T06:18:42;2.65;;;2.42;;
16330;SDS011;8275;48.206;16.340;2022-10-31T06:21:11;1.60;;;1.50;;
16330;SDS011;8275;48.206;16.340;2022-10-31T06:23:44;4.07;;;2.13;;
16330;SDS011;8275;48.206;16.340;2022-10-31T06:26:12;1.90;;;1.65;;
16330;SDS011;8275;48.206;16.340;2022-10-31T06:28:41;1.83;;;1.73;;
16330;SDS011;8275;48.206;16.340;2022-10-31T06:31:09;3.25;;;2.72;;
16330;SDS011;8275;48.206;16.340;2022-10-31T06:33:37;6.32;;;2.25;;
16330;SDS011;8275;48.206;16.340;2022-10-31T06:36:08;3.42;;;2.65;;
16330;SDS011;8275;48.206;16.340;2022-10-31T06:38:38;4.32;;;2.25;;
16330;SDS011;8275;48.206;16.340;2022-10-31T06:41:07;2.03;;;1.88;;
16330;SDS011;8275;48.206;16.340;2022-10-31T06:43:35;2.78;;;2.30;;
16330;SDS011;8275;48.206;16.340;2022-10-31T06:46:04;3.70;;;1.95;;
16330;SDS011;8275;48.206;16.340;2022-10-31T06:48:33;4.20;;;2.58;;
16330;SDS011;8275;48.206;16.340;2022-10-31T06:51:01;2.33;;;2.13;;
16330;SDS011;8275;48.206;16.340;2022-10-31T06:53:30;2.78;;;2.30;;
16330;SDS011;8275;48.206;16.340;2022-10-31T06:56:00;3.10;;;2.78;;
16330;SDS011;8275;48.206;16.340;2022-10-31T06:58:28;3.35;;;2.97;;
16330;SDS011;8275;48.206;16.340;2022-10-31T07:00:58;4.18;;;3.83;;
16330;SDS011;8275;48.206;16.340;2022-10-31T07:03:27;4.28;;;2.85;;
16330;SDS011;8275;48.206;16.340;2022-10-31T07:05:56;4.05;;;3.55;;
16330;SDS011;8275;48.206;16.340;2022-10-31T07:08:25;4.07;;;2.85;;
16330;SDS011;8275;48.206;16.340;2022-10-31T07:10:55;4.00;;;3.60;;
16330;SDS011;8275;48.206;16.340;2022-10-31T07:13:26;3.00;;;2.50;;
16330;SDS011;8275;48.206;16.340;2022-10-31T07:15:58;3.70;;;3.40;;
16330;SDS011;8275;48.206;16.340;2022-10-31T07:18:29;5.07;;;3.35;;
16330;SDS011;8275;48.206;16.340;2022-10-31T07:20:57;2.92;;;2.55;;
16330;SDS011;8275;48.206;16.340;2022-10-31T07:23:25;3.60;;;3.10;;
16330;SDS011;8275;48.206;16.340;2022-10-31T07:25:54;2.90;;;2.60;;
16330;SDS011;8275;48.206;16.340;2022-10-31T07:28:23;4.07;;;3.65;;
16330;SDS011;8275;48.206;16.340;2022-10-31T07:30:54;2.50;;;2.30;;
16330;SDS011;8275;48.206;16.340;2022-10-31T07:33:24;3.53;;;3.17;;
16330;SDS011;8275;48.206;16.340;2022-10-31T07:35:53;3.42;;;2.72;;
16330;SDS011;8275;48.206;16.340;2022-10-31T07:38:22;4.68;;;3.60;;
16330;SDS011;8275;48.206;16.340;2022-10-31T07:40:50;4.78;;;3.53;;
16330;SDS011;8275;48.206;16.340;2022-10-31T07:43:20;3.88;;;3.55;;
16330;SDS011;8275;48.206;16.340;2022-10-31T07:45:49;4.68;;;2.95;;
16330;SDS011;8275;48.206;16.340;2022-10-31T07:48:20;6.18;;;3.97;;
16330;SDS011;8275;48.206;16.340;2022-10-31T07:50:48;5.22;;;4.05;;
16330;SDS011;8275;48.206;16.340;2022-10-31T07:53:17;3.97;;;3.10;;
16330;SDS011;8275;48.206;16.340;2022-10-31T07:55:45;4.10;;;2.75;;
16330;SDS011;8275;48.206;16.340;2022-10-31T07:58:14;3.40;;;2.95;;
16330;SDS011;8275;48.206;16.340;2022-10-31T08:00:44;4.65;;;3.67;;
16330;SDS011;8275;48.206;16.340;2022-10-31T08:03:15;4.53;;;3.35;;
16330;SDS011;8275;48.206;16.340;2022-10-31T08:05:46;3.35;;;2.83;;
16330;SDS011;8275;48.206;16.340;2022-10-31T08:08:15;4.80;;;3.67;;
16330;SDS011;8275;48.206;16.340;2022-10-31T08:10:43;5.18;;;4.15;;
16330;SDS011;8275;48.206;16.340;2022-10-31T08:13:12;3.90;;;3.55;;
16330;SDS011;8275;48.206;16.340;2022-10-31T08:15:41;4.45;;;4.00;;
16330;SDS011;8275;48.206;16.340;2022-10-31T08:18:11;4.60;;;4.10;;
16330;SDS011;8275;48.206;16.340;2022-10-31T08:20:41;4.13;;;3.72;;
16330;SDS011;8275;48.206;16.340;2022-10-31T08:23:12;8.13;;;4.90;;
16330;SDS011;8275;48.206;16.340;2022-10-31T08:25:41;4.28;;;3.97;;
16330;SDS011;8275;48.206;16.340;2022-10-31T08:28:10;3.92;;;3.55;;
16330;SDS011;8275;48.206;16.340;2022-10-31T08:30:39;8.07;;;3.83;;
16330;SDS011;8275;48.206;16.340;2022-10-31T08:33:09;4.50;;;4.07;;
16330;SDS011;8275;48.206;16.340;2022-10-31T08:35:40;5.68;;;5.18;;
16330;SDS011;8275;48.206;16.340;2022-10-31T08:38:09;4.85;;;3.45;;
16330;SDS011;8275;48.206;16.340;2022-10-31T08:40:40;5.88;;;4.22;;
16330;SDS011;8275;48.206;16.340;2022-10-31T08:43:10;6.00;;;5.20;;
16330;SDS011;8275;48.206;16.340;2022-10-31T08:45:41;6.15;;;4.75;;
16330;SDS011;8275;48.206;16.340;2022-10-31T08:48:11;4.65;;;3.78;;
16330;SDS011;8275;48.206;16.340;2022-10-31T08:50:41;5.95;;;4.57;;
16330;SDS011;8275;48.206;16.340;2022-10-31T08:53:13;5.85;;;5.28;;
16330;SDS011;8275;48.206;16.340;2022-10-31T08:55:43;5.40;;;4.90;;
16330;SDS011;8275;48.206;16.340;2022-10-31T08:58:18;11.85;;;5.57;;
16330;SDS011;8275;48.206;16.340;2022-10-31T09:00:47;5.72;;;5.25;;
16330;SDS011;8275;48.206;16.340;2022-10-31T09:03:18;6.40;;;5.68;;
16330;SDS011;8275;48.206;16.340;2022-10-31T09:05:49;6.32;;;5.72;;
16330;SDS011;8275;48.206;16.340;2022-10-31T09:08:23;10.80;;;5.35;;
16330;SDS011;8275;48.206;16.340;2022-10-31T09:10:52;5.85;;;5.10;;
16330;SDS011;8275;48.206;16.340;2022-10-31T09:13:23;5.07;;;4.45;;
16330;SDS011;8275;48.206;16.340;2022-10-31T09:15:53;8.68;;;6.05;;
16330;SDS011;8275;48.206;16.340;2022-10-31T09:18:24;5.43;;;4.93;;
16330;SDS011;8275;48.206;16.340;2022-10-31T09:20:54;6.35;;;5.72;;
16330;SDS011;8275;48.206;16.340;2022-10-31T09:23:26;6.80;;;5.53;;
16330;SDS011;8275;48.206;16.340;2022-10-31T09:25:55;14.48;;;6.20;;
16330;SDS011;8275;48.206;16.340;2022-10-31T09:28:28;5.53;;;5.03;;
16330;SDS011;8275;48.206;16.340;2022-10-31T09:30:57;5.78;;;5.07;;
16330;SDS011;8275;48.206;16.340;2022-10-31T09:33:26;9.10;;;5.22;;
16330;SDS011;8275;48.206;16.340;2022-10-31T09:35:54;6.10;;;4.85;;
16330;SDS011;8275;48.206;16.340;2022-10-31T09:38:26;8.93;;;6.50;;
16330;SDS011;8275;48.206;16.340;2022-10-31T09:40:55;6.43;;;5.63;;
16330;SDS011;8275;48.206;16.340;2022-10-31T09:43:37;7.55;;;6.40;;
16330;SDS011;8275;48.206;16.340;2022-10-31T09:46:18;7.85;;;7.05;;
16330;SDS011;8275;48.206;16.340;2022-10-31T09:48:59;6.07;;;4.63;;
16330;SDS011;8275;48.206;16.340;2022-10-31T09:51:51;7.65;;;6.18;;
16330;SDS011;8275;48.206;16.340;2022-10-31T09:54:33;9.20;;;7.63;;
16330;SDS011;8275;48.206;16.340;2022-10-31T09:57:10;6.00;;;5.20;;
16330;SDS011;8275;48.206;16.340;2022-10-31T09:59:43;8.80;;;6.30;;
16330;SDS011;8275;48.206;16.340;2022-10-31T10:02:16;8.63;;;7.10;;
16330;SDS011;8275;48.206;16.340;2022-10-31T10:04:51;5.75;;;5.20;;
16330;SDS011;8275;48.206;16.340;2022-10-31T10:07:27;12.27;;;6.50;;
16330;SDS011;8275;48.206;16.340;2022-10-31T10:10:14;6.40;;;5.72;;
16330;SDS011;8275;48.206;16.340;2022-10-31T10:13:00;8.10;;;7.05;;
16330;SDS011;8275;48.206;16.340;2022-10-31T10:15:55;8.35;;;7.55;;
16330;SDS011;8275;48.206;16.340;2022-10-31T10:18:38;8.15;;;6.50;;
16330;SDS011;8275;48.206;16.340;2022-10-31T10:21:24;8.75;;;7.05;;
16330;SDS011;8275;48.206;16.340;2022-10-31T10:24:09;9.30;;;6.85;;
16330;SDS011;8275;48.206;16.340;2022-10-31T10:26:54;7.20;;;6.22;;
16330;SDS011;8275;48.206;16.340;2022-10-31T10:29:34;11.32;;;8.52;;
16330;SDS011;8275;48.206;16.340;2022-10-31T10:32:12;9.93;;;6.68;;
16330;SDS011;8275;48.206;16.340;2022-10-31T10:34:48;7.18;;;6.45;;
16330;SDS011;8275;48.206;16.340;2022-10-31T10:37:24;10.55;;;7.82;;
16330;SDS011;8275;48.206;16.340;2022-10-31T10:40:05;11.10;;;7.97;;
16330;SDS011;8275;48.206;16.340;2022-10-31T10:42:42;11.88;;;9.02;;
16330;SDS011;8275;48.206;16.340;2022-10-31T10:45:35;11.38;;;10.18;;
16330;SDS011;8275;48.206;16.340;2022-10-31T10:48:24;8.02;;;7.30;;
16330;SDS011;8275;48.206;16.340;2022-10-31T10:51:00;10.68;;;9.02;;
16330;SDS011;8275;48.206;16.340;2022-10-31T10:53:38;11.75;;;9.38;;
16330;SDS011;8275;48.206;16.340;2022-10-31T10:59:29;9.73;;;8.35;;
16330;SDS011;8275;48.206;16.340;2022-10-31T11:01:58;14.07;;;9.63;;
16330;SDS011;8275;48.206;16.340;2022-10-31T11:04:31;16.90;;;9.98;;
16330;SDS011;8275;48.206;16.340;2022-10-31T11:07:02;11.13;;;9.27;;
16330;SDS011;8275;48.206;16.340;2022-10-31T11:09:33;10.80;;;9.63;;
16330;SDS011;8275;48.206;16.340;2022-10-31T11:12:05;10.52;;;8.30;;
16330;SDS011;8275;48.206;16.340;2022-10-31T11:14:44;9.95;;;8.57;;
16330;SDS011;8275;48.206;16.340;2022-10-31T11:17:17;9.68;;;8.48;;
16330;SDS011;8275;48.206;16.340;2022-10-31T11:20:01;9.70;;;8.15;;
16330;SDS011;8275;48.206;16.340;2022-10-31T11:22:55;10.80;;;8.07;;
16330;SDS011;8275;48.206;16.340;2022-10-31T11:25:32;11.20;;;8.35;;
16330;SDS011;8275;48.206;16.340;2022-10-31T11:28:00;11.43;;;9.38;;
16330;SDS011;8275;48.206;16.340;2022-10-31T11:30:35;10.18;;;7.30;;
16330;SDS011;8275;48.206;16.340;2022-10-31T11:33:14;13.25;;;9.07;;
16330;SDS011;8275;48.206;16.340;2022-10-31T11:35:48;9.63;;;7.35;;
16330;SDS011;8275;48.206;16.340;2022-10-31T11:38:24;10.00;;;8.00;;
16330;SDS011;8275;48.206;16.340;2022-10-31T11:40:58;12.68;;;8.02;;
16330;SDS011;8275;48.206;16.340;2022-10-31T11:43:39;8.73;;;7.82;;
16330;SDS011;8275;48.206;16.340;2022-10-31T11:46:19;9.32;;;8.43;;
16330;SDS011;8275;48.206;16.340;2022-10-31T11:49:12;13.25;;;8.68;;
16330;SDS011;8275;48.206;16.340;2022-10-31T11:51:47;18.48;;;9.00;;
16330;SDS011;8275;48.206;16.340;2022-10-31T11:54:19;8.80;;;7.75;;
16330;SDS011;8275;48.206;16.340;2022-10-31T11:56:52;14.55;;;9.52;;
16330;SDS011;8275;48.206;16.340;2022-10-31T11:59:22;20.05;;;12.45;;
16330;SDS011;8275;48.206;16.340;2022-10-31T12:01:56;12.48;;;10.15;;
16330;SDS011;8275;48.206;16.340;2022-10-31T12:04:29;12.18;;;11.00;;
16330;SDS011;8275;48.206;16.340;2022-10-31T12:07:06;10.93;;;9.60;;
16330;SDS011;8275;48.206;16.340;2022-10-31T12:09:35;18.52;;;11.13;;
16330;SDS011;8275;48.206;16.340;2022-10-31T12:12:21;14.40;;;11.15;;
16330;SDS011;8275;48.206;16.340;2022-10-31T12:18:05;16.52;;;10.82;;
16330;SDS011;8275;48.206;16.340;2022-10-31T12:21:14;12.40;;;10.93;;
16330;SDS011;8275;48.206;16.340;2022-10-31T12:24:03;17.50;;;13.50;;
16330;SDS011;8275;48.206;16.340;2022-10-31T12:26:50;14.85;;;12.50;;
16330;SDS011;8275;48.206;16.340;2022-10-31T12:29:35;14.85;;;11.45;;
16330;SDS011;8275;48.206;16.340;2022-10-31T12:32:34;18.08;;;12.80;;
16330;SDS011;8275;48.206;16.340;2022-10-31T12:35:20;19.83;;;13.13;;
16330;SDS011;8275;48.206;16.340;2022-10-31T12:38:02;14.70;;;11.95;;
16330;SDS011;8275;48.206;16.340;2022-10-31T12:40:59;19.70;;;12.90;;
16330;SDS011;8275;48.206;16.340;2022-10-31T12:43:49;16.40;;;11.82;;
16330;SDS011;8275;48.206;16.340;2022-10-31T12:46:25;16.45;;;13.85;;
16330;SDS011;8275;48.206;16.340;2022-10-31T12:49:33;17.92;;;14.30;;
16330;SDS011;8275;48.206;16.340;2022-10-31T12:52:24;19.20;;;15.10;;
16330;SDS011;8275;48.206;16.340;2022-10-31T12:55:14;17.35;;;13.43;;
16330;SDS011;8275;48.206;16.340;2022-10-31T12:58:01;16.15;;;12.93;;
16330;SDS011;8275;48.206;16.340;2022-10-31T13:00:37;16.98;;;14.00;;
16330;SDS011;8275;48.206;16.340;2022-10-31T13:03:15;17.42;;;13.98;;
16330;SDS011;8275;48.206;16.340;2022-10-31T13:05:54;18.73;;;15.35;;
16330;SDS011;8275;48.206;16.340;2022-10-31T13:08:33;25.27;;;14.98;;
16330;SDS011;8275;48.206;16.340;2022-10-31T13:11:08;21.92;;;16.73;;
16330;SDS011;8275;48.206;16.340;2022-10-31T13:13:42;19.58;;;15.93;;
16330;SDS011;8275;48.206;16.340;2022-10-31T13:16:21;23.90;;;16.83;;
16330;SDS011;8275;48.206;16.340;2022-10-31T13:18:57;18.55;;;14.48;;
16330;SDS011;8275;48.206;16.340;2022-10-31T13:21:32;22.27;;;16.42;;
16330;SDS011;8275;48.206;16.340;2022-10-31T13:24:17;22.85;;;17.30;;
16330;SDS011;8275;48.206;16.340;2022-10-31T13:26:52;19.92;;;14.65;;
16330;SDS011;8275;48.206;16.340;2022-10-31T13:29:26;17.23;;;12.82;;
16330;SDS011;8275;48.206;16.340;2022-10-31T13:31:59;17.92;;;13.50;;
16330;SDS011;8275;48.206;16.340;2022-10-31T13:34:32;22.00;;;13.95;;
16330;SDS011;8275;48.206;16.340;2022-10-31T13:37:06;16.77;;;14.70;;
16330;SDS011;8275;48.206;16.340;2022-10-31T13:39:48;20.48;;;15.95;;
16330;SDS011;8275;48.206;16.340;2022-10-31T13:42:37;20.30;;;16.83;;
16330;SDS011;8275;48.206;16.340;2022-10-31T13:45:19;20.33;;;14.68;;
16330;SDS011;8275;48.206;16.340;2022-10-31T13:47:58;20.73;;;16.27;;
16330;SDS011;8275;48.206;16.340;2022-10-31T13:50:29;23.00;;;15.38;;
16330;SDS011;8275;48.206;16.340;2022-10-31T13:53:13;20.08;;;16.13;;
16330;SDS011;8275;48.206;16.340;2022-10-31T13:55:48;22.00;;;16.55;;
16330;SDS011;8275;48.206;16.340;2022-10-31T13:58:29;21.00;;;15.90;;
16330;SDS011;8275;48.206;16.340;2022-10-31T14:00:59;23.40;;;15.35;;
16330;SDS011;8275;48.206;16.340;2022-10-31T14:03:43;18.05;;;14.15;;
16330;SDS011;8275;48.206;16.340;2022-10-31T14:06:38;25.17;;;17.20;;
16330;SDS011;8275;48.206;16.340;2022-10-31T14:09:18;17.13;;;14.43;;
16330;SDS011;8275;48.206;16.340;2022-10-31T14:11:52;22.00;;;16.67;;
16330;SDS011;8275;48.206;16.340;2022-10-31T14:14:23;19.50;;;16.90;;
16330;SDS011;8275;48.206;16.340;2022-10-31T14:17:01;21.60;;;16.38;;
16330;SDS011;8275;48.206;16.340;2022-10-31T14:19:30;28.00;;;24.17;;
16330;SDS011;8275;48.206;16.340;2022-10-31T14:21:59;22.85;;;19.95;;
16330;SDS011;8275;48.206;16.340;2022-10-31T14:24:32;21.00;;;17.80;;
16330;SDS011;8275;48.206;16.340;2022-10-31T14:27:29;22.52;;;16.05;;
16330;SDS011;8275;48.206;16.340;2022-10-31T14:30:17;20.58;;;15.32;;
16330;SDS011;8275;48.206;16.340;2022-10-31T14:32:49;16.77;;;14.70;;
16330;SDS011;8275;48.206;16.340;2022-10-31T14:35:22;19.67;;;15.77;;
16330;SDS011;8275;48.206;16.340;2022-10-31T14:38:03;17.98;;;14.27;;
16330;SDS011;8275;48.206;16.340;2022-10-31T14:40:49;18.30;;;13.88;;
16330;SDS011;8275;48.206;16.340;2022-10-31T14:43:41;20.17;;;15.90;;
16330;SDS011;8275;48.206;16.340;2022-10-31T14:46:54;16.40;;;14.18;;
16330;SDS011;8275;48.206;16.340;2022-10-31T14:49:34;19.63;;;16.05;;
16330;SDS011;8275;48.206;16.340;2022-10-31T14:52:22;24.20;;;17.25;;
16330;SDS011;8275;48.206;16.340;2022-10-31T14:54:51;44.90;;;16.40;;
16330;SDS011;8275;48.206;16.340;2022-10-31T14:57:23;23.27;;;15.65;;
16330;SDS011;8275;48.206;16.340;2022-10-31T14:59:58;24.75;;;17.65;;
16330;SDS011;8275;48.206;16.340;2022-10-31T15:02:33;20.00;;;16.02;;
16330;SDS011;8275;48.206;16.340;2022-10-31T15:05:09;20.95;;;17.02;;
16330;SDS011;8275;48.206;16.340;2022-10-31T15:07:48;18.67;;;16.08;;
16330;SDS011;8275;48.206;16.340;2022-10-31T15:10:20;24.42;;;17.35;;
16330;SDS011;8275;48.206;16.340;2022-10-31T15:12:51;26.00;;;18.58;;
16330;SDS011;8275;48.206;16.340;2022-10-31T15:15:23;30.23;;;18.17;;
16330;SDS011;8275;48.206;16.340;2022-10-31T15:17:54;28.33;;;20.60;;
16330;SDS011;8275;48.206;16.340;2022-10-31T15:20:26;26.05;;;17.30;;
16330;SDS011;8275;48.206;16.340;2022-10-31T15:22:58;25.70;;;18.95;;
16330;SDS011;8275;48.206;16.340;2022-10-31T15:25:30;21.90;;;16.85;;
16330;SDS011;8275;48.206;16.340;2022-10-31T15:28:12;23.02;;;16.88;;